sensor_id;sensor_type;location;lat;lon;timestamp;temperature;humidity
22629;DHT22;11481;53.694;9.910;2023-04-24T00:01:24;14.90;99.90
22629;DHT22;11481;53.694;9.910;2023-04-24T00:03:51;14.80;99.90
22629;DHT22;11481;53.694;9.910;2023-04-24T00:06:18;14.80;99.90
22629;DHT22;11481;53.694;9.910;2023-04-24T00:08:45;14.70;99.90
22629;DHT22;11481;53.694;9.910;2023-04-24T00:11:11;14.70;99.90
22629;DHT22;11481;53.694;9.910;2023-04-24T00:13:38;14.70;99.90
22629;DHT22;11481;53.694;9.910;2023-04-24T00:16:06;14.60;99.90
22629;DHT22;11481;53.694;9.910;2023-04-24T00:18:33;14.60;99.90
22629;DHT22;11481;53.694;9.910;2023-04-24T00:20:59;14.60;99.90
22629;DHT22;11481;53.694;9.910;2023-04-24T00:23:26;14.60;99.90
22629;DHT22;11481;53.694;9.910;2023-04-24T00:25:53;14.60;99.90
22629;DHT22;11481;53.694;9.910;2023-04-24T00:28:20;14.60;99.90
22629;DHT22;11481;53.694;9.910;2023-04-24T00:30:47;14.60;99.90
22629;DHT22;11481;53.694;9.910;2023-04-24T00:33:13;14.60;99.90
22629;DHT22;11481;53.694;9.910;2023-04-24T00:35:41;14.60;99.90
22629;DHT22;11481;53.694;9.910;2023-04-24T00:38:08;14.60;99.90
22629;DHT22;11481;53.694;9.910;2023-04-24T00:40:34;14.60;99.90
22629;DHT22;11481;53.694;9.910;2023-04-24T00:43:01;14.60;99.90
22629;DHT22;11481;53.694;9.910;2023-04-24T00:45:28;14.50;99.90
22629;DHT22;11481;53.694;9.910;2023-04-24T00:47:58;14.60;99.90
22629;DHT22;11481;53.694;9.910;2023-04-24T00:50:25;14.60;99.90
22629;DHT22;11481;53.694;9.910;2023-04-24T00:52:52;14.60;99.90
22629;DHT22;11481;53.694;9.910;2023-04-24T00:55:20;14.60;99.90
22629;DHT22;11481;53.694;9.910;2023-04-24T00:57:47;14.50;99.90
22629;DHT22;11481;53.694;9.910;2023-04-24T01:00:15;14.30;99.90
22629;DHT22;11481;53.694;9.910;2023-04-24T01:02:44;14.30;99.90
22629;DHT22;11481;53.694;9.910;2023-04-24T01:05:13;14.20;99.90
22629;DHT22;11481;53.694;9.910;2023-04-24T01:07:41;14.10;99.90
22629;DHT22;11481;53.694;9.910;2023-04-24T01:10:11;14.10;99.90
22629;DHT22;11481;53.694;9.910;2023-04-24T01:12:39;14.10;99.90
22629;DHT22;11481;53.694;9.910;2023-04-24T01:15:06;14.10;99.90
22629;DHT22;11481;53.694;9.910;2023-04-24T01:17:33;14.00;99.90
22629;DHT22;11481;53.694;9.910;2023-04-24T01:20:00;14.00;99.90
22629;DHT22;11481;53.694;9.910;2023-04-24T01:22:27;13.90;99.90
22629;DHT22;11481;53.694;9.910;2023-04-24T01:24:54;13.90;99.90
22629;DHT22;11481;53.694;9.910;2023-04-24T01:27:21;13.80;99.90
22629;DHT22;11481;53.694;9.910;2023-04-24T01:29:48;13.70;99.90
22629;DHT22;11481;53.694;9.910;2023-04-24T01:32:15;13.70;99.90
22629;DHT22;11481;53.694;9.910;2023-04-24T01:34:43;13.90;99.90
22629;DHT22;11481;53.694;9.910;2023-04-24T01:37:11;14.00;99.90
22629;DHT22;11481;53.694;9.910;2023-04-24T01:39:38;13.60;99.90
22629;DHT22;11481;53.694;9.910;2023-04-24T01:42:05;13.60;99.90
22629;DHT22;11481;53.694;9.910;2023-04-24T01:44:33;13.60;99.90
22629;DHT22;11481;53.694;9.910;2023-04-24T01:47:01;13.40;99.90
22629;DHT22;11481;53.694;9.910;2023-04-24T01:49:27;13.40;99.90
22629;DHT22;11481;53.694;9.910;2023-04-24T01:51:54;13.50;99.90
22629;DHT22;11481;53.694;9.910;2023-04-24T01:54:21;13.60;99.90
22629;DHT22;11481;53.694;9.910;2023-04-24T01:56:48;13.50;99.90
22629;DHT22;11481;53.694;9.910;2023-04-24T01:59:15;13.40;99.90
22629;DHT22;11481;53.694;9.910;2023-04-24T02:01:43;13.50;99.90
22629;DHT22;11481;53.694;9.910;2023-04-24T02:04:10;13.50;99.90
22629;DHT22;11481;53.694;9.910;2023-04-24T02:06:37;13.50;99.90
22629;DHT22;11481;53.694;9.910;2023-04-24T02:09:04;13.50;99.90
22629;DHT22;11481;53.694;9.910;2023-04-24T02:11:30;13.30;99.90
22629;DHT22;11481;53.694;9.910;2023-04-24T02:13:57;13.30;99.90
22629;DHT22;11481;53.694;9.910;2023-04-24T02:16:24;13.20;99.90
22629;DHT22;11481;53.694;9.910;2023-04-24T02:18:51;13.20;99.90
22629;DHT22;11481;53.694;9.910;2023-04-24T02:21:18;13.10;99.90
22629;DHT22;11481;53.694;9.910;2023-04-24T02:23:44;13.00;99.90
22629;DHT22;11481;53.694;9.910;2023-04-24T02:26:11;13.00;99.90
22629;DHT22;11481;53.694;9.910;2023-04-24T02:28:38;12.90;99.90
22629;DHT22;11481;53.694;9.910;2023-04-24T02:31:05;12.80;99.90
22629;DHT22;11481;53.694;9.910;2023-04-24T02:33:32;12.90;99.90
22629;DHT22;11481;53.694;9.910;2023-04-24T02:35:59;12.80;99.90
22629;DHT22;11481;53.694;9.910;2023-04-24T02:38:27;12.80;99.90
22629;DHT22;11481;53.694;9.910;2023-04-24T02:40:53;12.70;99.90
22629;DHT22;11481;53.694;9.910;2023-04-24T02:43:20;12.80;99.90
22629;DHT22;11481;53.694;9.910;2023-04-24T02:45:48;12.70;99.90
22629;DHT22;11481;53.694;9.910;2023-04-24T02:48:15;12.70;99.90
22629;DHT22;11481;53.694;9.910;2023-04-24T02:50:42;12.70;99.90
22629;DHT22;11481;53.694;9.910;2023-04-24T02:53:08;12.60;99.90
22629;DHT22;11481;53.694;9.910;2023-04-24T02:55:35;12.70;99.90
22629;DHT22;11481;53.694;9.910;2023-04-24T02:58:02;12.70;99.90
22629;DHT22;11481;53.694;9.910;2023-04-24T03:00:29;12.70;99.90
22629;DHT22;11481;53.694;9.910;2023-04-24T03:02:56;12.60;99.90
22629;DHT22;11481;53.694;9.910;2023-04-24T03:05:23;12.60;99.90
22629;DHT22;11481;53.694;9.910;2023-04-24T03:07:50;12.60;99.90
22629;DHT22;11481;53.694;9.910;2023-04-24T03:10:19;12.60;99.90
22629;DHT22;11481;53.694;9.910;2023-04-24T03:12:45;12.60;99.90
22629;DHT22;11481;53.694;9.910;2023-04-24T03:15:12;12.60;99.90
22629;DHT22;11481;53.694;9.910;2023-04-24T03:17:39;12.60;99.90
22629;DHT22;11481;53.694;9.910;2023-04-24T03:20:06;12.60;99.90
22629;DHT22;11481;53.694;9.910;2023-04-24T03:22:35;12.50;99.90
22629;DHT22;11481;53.694;9.910;2023-04-24T03:25:01;12.50;99.90
22629;DHT22;11481;53.694;9.910;2023-04-24T03:27:28;12.50;99.90
22629;DHT22;11481;53.694;9.910;2023-04-24T03:29:55;12.50;99.90
22629;DHT22;11481;53.694;9.910;2023-04-24T03:32:22;12.40;99.90
22629;DHT22;11481;53.694;9.910;2023-04-24T03:34:49;12.30;99.90
22629;DHT22;11481;53.694;9.910;2023-04-24T03:37:16;12.40;99.90
22629;DHT22;11481;53.694;9.910;2023-04-24T03:39:43;12.30;99.90
22629;DHT22;11481;53.694;9.910;2023-04-24T03:42:10;12.30;99.90
22629;DHT22;11481;53.694;9.910;2023-04-24T03:44:37;12.30;99.90
22629;DHT22;11481;53.694;9.910;2023-04-24T03:47:04;12.20;99.90
22629;DHT22;11481;53.694;9.910;2023-04-24T03:49:31;12.20;99.90
22629;DHT22;11481;53.694;9.910;2023-04-24T03:51:58;12.10;99.90
22629;DHT22;11481;53.694;9.910;2023-04-24T03:54:24;12.10;99.90
22629;DHT22;11481;53.694;9.910;2023-04-24T03:56:52;12.10;99.90
22629;DHT22;11481;53.694;9.910;2023-04-24T03:59:19;12.10;99.90
22629;DHT22;11481;53.694;9.910;2023-04-24T04:01:45;12.10;99.90
22629;DHT22;11481;53.694;9.910;2023-04-24T04:04:12;12.00;99.90
22629;DHT22;11481;53.694;9.910;2023-04-24T04:06:39;12.00;99.90
22629;DHT22;11481;53.694;9.910;2023-04-24T04:09:06;12.10;99.90
22629;DHT22;11481;53.694;9.910;2023-04-24T04:11:33;11.80;99.90
22629;DHT22;11481;53.694;9.910;2023-04-24T04:14:02;11.70;99.90
22629;DHT22;11481;53.694;9.910;2023-04-24T04:16:29;11.70;99.90
22629;DHT22;11481;53.694;9.910;2023-04-24T04:18:56;11.70;99.90
22629;DHT22;11481;53.694;9.910;2023-04-24T04:21:23;11.70;99.90
22629;DHT22;11481;53.694;9.910;2023-04-24T04:23:50;11.70;99.90
22629;DHT22;11481;53.694;9.910;2023-04-24T04:26:17;11.70;99.90
22629;DHT22;11481;53.694;9.910;2023-04-24T04:28:45;11.60;99.90
22629;DHT22;11481;53.694;9.910;2023-04-24T04:31:12;11.70;99.90
22629;DHT22;11481;53.694;9.910;2023-04-24T04:33:39;11.70;99.90
22629;DHT22;11481;53.694;9.910;2023-04-24T04:36:06;11.70;99.90
22629;DHT22;11481;53.694;9.910;2023-04-24T04:38:33;11.70;99.90
22629;DHT22;11481;53.694;9.910;2023-04-24T04:41:01;11.70;99.90
22629;DHT22;11481;53.694;9.910;2023-04-24T04:43:31;11.70;99.90
22629;DHT22;11481;53.694;9.910;2023-04-24T04:45:59;11.70;99.90
22629;DHT22;11481;53.694;9.910;2023-04-24T04:48:27;11.60;99.90
22629;DHT22;11481;53.694;9.910;2023-04-24T04:50:55;12.70;99.90
22629;DHT22;11481;53.694;9.910;2023-04-24T04:53:21;11.80;99.90
22629;DHT22;11481;53.694;9.910;2023-04-24T04:55:51;11.80;99.90
22629;DHT22;11481;53.694;9.910;2023-04-24T04:58:22;11.80;99.90
22629;DHT22;11481;53.694;9.910;2023-04-24T05:00:50;11.90;99.90
22629;DHT22;11481;53.694;9.910;2023-04-24T05:03:18;11.90;99.90
22629;DHT22;11481;53.694;9.910;2023-04-24T05:05:47;11.80;99.90
22629;DHT22;11481;53.694;9.910;2023-04-24T05:08:13;11.90;99.90
22629;DHT22;11481;53.694;9.910;2023-04-24T05:10:43;11.80;99.90
22629;DHT22;11481;53.694;9.910;2023-04-24T05:13:10;11.90;99.90
22629;DHT22;11481;53.694;9.910;2023-04-24T05:15:39;12.00;99.90
22629;DHT22;11481;53.694;9.910;2023-04-24T05:18:06;12.00;99.90
22629;DHT22;11481;53.694;9.910;2023-04-24T05:20:33;12.10;99.90
22629;DHT22;11481;53.694;9.910;2023-04-24T05:22:59;12.20;99.90
22629;DHT22;11481;53.694;9.910;2023-04-24T05:25:26;12.20;99.90
22629;DHT22;11481;53.694;9.910;2023-04-24T05:27:53;12.20;99.90
22629;DHT22;11481;53.694;9.910;2023-04-24T05:30:22;12.10;99.90
22629;DHT22;11481;53.694;9.910;2023-04-24T05:32:49;12.00;99.90
22629;DHT22;11481;53.694;9.910;2023-04-24T05:35:16;12.20;99.90
22629;DHT22;11481;53.694;9.910;2023-04-24T05:37:43;12.30;99.90
22629;DHT22;11481;53.694;9.910;2023-04-24T05:40:10;12.30;99.90
22629;DHT22;11481;53.694;9.910;2023-04-24T05:42:37;12.30;99.90
22629;DHT22;11481;53.694;9.910;2023-04-24T05:45:05;12.30;99.90
22629;DHT22;11481;53.694;9.910;2023-04-24T05:47:32;12.30;99.90
22629;DHT22;11481;53.694;9.910;2023-04-24T05:49:58;12.30;99.90
22629;DHT22;11481;53.694;9.910;2023-04-24T05:52:25;12.30;99.90
22629;DHT22;11481;53.694;9.910;2023-04-24T05:54:52;12.40;99.90
22629;DHT22;11481;53.694;9.910;2023-04-24T05:57:19;12.40;99.90
22629;DHT22;11481;53.694;9.910;2023-04-24T05:59:46;12.40;99.90
22629;DHT22;11481;53.694;9.910;2023-04-24T06:02:14;12.50;99.90
22629;DHT22;11481;53.694;9.910;2023-04-24T06:04:41;12.60;99.90
22629;DHT22;11481;53.694;9.910;2023-04-24T06:07:10;12.50;99.90
22629;DHT22;11481;53.694;9.910;2023-04-24T06:09:37;12.70;99.90
22629;DHT22;11481;53.694;9.910;2023-04-24T06:12:04;12.80;99.90
22629;DHT22;11481;53.694;9.910;2023-04-24T06:14:30;12.80;99.90
22629;DHT22;11481;53.694;9.910;2023-04-24T06:16:57;12.70;99.90
22629;DHT22;11481;53.694;9.910;2023-04-24T06:19:24;12.80;99.90
22629;DHT22;11481;53.694;9.910;2023-04-24T06:21:51;12.80;99.90
22629;DHT22;11481;53.694;9.910;2023-04-24T06:24:18;12.80;99.90
22629;DHT22;11481;53.694;9.910;2023-04-24T06:26:48;12.80;99.90
22629;DHT22;11481;53.694;9.910;2023-04-24T06:29:17;12.90;99.90
22629;DHT22;11481;53.694;9.910;2023-04-24T06:31:48;12.90;99.90
22629;DHT22;11481;53.694;9.910;2023-04-24T06:34:14;12.90;99.90
22629;DHT22;11481;53.694;9.910;2023-04-24T06:36:46;13.00;99.90
22629;DHT22;11481;53.694;9.910;2023-04-24T06:39:16;13.10;99.90
22629;DHT22;11481;53.694;9.910;2023-04-24T06:41:42;13.10;99.90
22629;DHT22;11481;53.694;9.910;2023-04-24T06:44:16;13.10;99.90
22629;DHT22;11481;53.694;9.910;2023-04-24T06:46:43;12.90;99.90
22629;DHT22;11481;53.694;9.910;2023-04-24T06:49:10;12.90;99.90
22629;DHT22;11481;53.694;9.910;2023-04-24T06:51:36;13.90;99.90
22629;DHT22;11481;53.694;9.910;2023-04-24T06:54:03;13.10;99.90
22629;DHT22;11481;53.694;9.910;2023-04-24T06:56:30;13.10;99.90
22629;DHT22;11481;53.694;9.910;2023-04-24T06:58:57;13.20;99.90
22629;DHT22;11481;53.694;9.910;2023-04-24T07:01:24;13.10;99.90
22629;DHT22;11481;53.694;9.910;2023-04-24T07:03:51;13.20;99.90
22629;DHT22;11481;53.694;9.910;2023-04-24T07:06:18;13.30;99.90
22629;DHT22;11481;53.694;9.910;2023-04-24T07:08:47;13.30;99.90
22629;DHT22;11481;53.694;9.910;2023-04-24T07:11:16;13.30;99.90
22629;DHT22;11481;53.694;9.910;2023-04-24T07:13:43;13.40;99.90
22629;DHT22;11481;53.694;9.910;2023-04-24T07:16:10;13.50;99.90
22629;DHT22;11481;53.694;9.910;2023-04-24T07:18:38;13.50;99.90
22629;DHT22;11481;53.694;9.910;2023-04-24T07:21:08;13.60;99.90
22629;DHT22;11481;53.694;9.910;2023-04-24T07:23:34;13.80;99.90
22629;DHT22;11481;53.694;9.910;2023-04-24T07:26:01;13.60;99.90
22629;DHT22;11481;53.694;9.910;2023-04-24T07:28:28;13.60;99.90
22629;DHT22;11481;53.694;9.910;2023-04-24T07:30:57;13.60;99.90
22629;DHT22;11481;53.694;9.910;2023-04-24T07:33:27;13.60;99.90
22629;DHT22;11481;53.694;9.910;2023-04-24T07:35:53;13.60;99.90
22629;DHT22;11481;53.694;9.910;2023-04-24T07:38:20;13.50;99.90
22629;DHT22;11481;53.694;9.910;2023-04-24T07:40:49;13.60;99.90
22629;DHT22;11481;53.694;9.910;2023-04-24T07:43:16;13.50;99.90
22629;DHT22;11481;53.694;9.910;2023-04-24T07:45:43;13.50;99.90
22629;DHT22;11481;53.694;9.910;2023-04-24T07:48:10;13.30;99.90
22629;DHT22;11481;53.694;9.910;2023-04-24T07:50:37;13.30;99.90
22629;DHT22;11481;53.694;9.910;2023-04-24T07:53:03;13.30;99.90
22629;DHT22;11481;53.694;9.910;2023-04-24T07:55:30;13.40;99.90
22629;DHT22;11481;53.694;9.910;2023-04-24T07:57:58;13.30;99.90
22629;DHT22;11481;53.694;9.910;2023-04-24T08:00:26;13.30;99.90
22629;DHT22;11481;53.694;9.910;2023-04-24T08:02:53;13.30;99.90
22629;DHT22;11481;53.694;9.910;2023-04-24T08:05:20;13.30;99.90
22629;DHT22;11481;53.694;9.910;2023-04-24T08:07:49;13.40;99.90
22629;DHT22;11481;53.694;9.910;2023-04-24T08:10:18;13.30;99.90
22629;DHT22;11481;53.694;9.910;2023-04-24T08:12:47;13.20;99.90
22629;DHT22;11481;53.694;9.910;2023-04-24T08:15:17;13.20;99.90
22629;DHT22;11481;53.694;9.910;2023-04-24T08:17:48;13.10;99.90
22629;DHT22;11481;53.694;9.910;2023-04-24T08:20:17;13.10;99.90
22629;DHT22;11481;53.694;9.910;2023-04-24T08:22:48;13.00;99.90
22629;DHT22;11481;53.694;9.910;2023-04-24T08:25:17;13.10;99.90
22629;DHT22;11481;53.694;9.910;2023-04-24T08:27:45;13.20;99.90
22629;DHT22;11481;53.694;9.910;2023-04-24T08:30:12;13.30;99.90
22629;DHT22;11481;53.694;9.910;2023-04-24T08:32:41;13.10;99.90
22629;DHT22;11481;53.694;9.910;2023-04-24T08:35:08;13.10;99.90
22629;DHT22;11481;53.694;9.910;2023-04-24T08:37:38;13.10;99.90
22629;DHT22;11481;53.694;9.910;2023-04-24T08:40:14;13.20;99.90
22629;DHT22;11481;53.694;9.910;2023-04-24T08:42:48;13.20;99.90
22629;DHT22;11481;53.694;9.910;2023-04-24T08:45:19;13.00;99.90
22629;DHT22;11481;53.694;9.910;2023-04-24T08:47:49;13.10;99.90
22629;DHT22;11481;53.694;9.910;2023-04-24T08:50:17;13.10;99.90
22629;DHT22;11481;53.694;9.910;2023-04-24T08:52:44;13.10;99.90
22629;DHT22;11481;53.694;9.910;2023-04-24T08:55:24;13.10;99.90
22629;DHT22;11481;53.694;9.910;2023-04-24T08:57:52;14.60;99.90
22629;DHT22;11481;53.694;9.910;2023-04-24T09:00:22;13.20;99.90
22629;DHT22;11481;53.694;9.910;2023-04-24T09:02:50;13.20;99.90
22629;DHT22;11481;53.694;9.910;2023-04-24T09:05:23;13.10;99.90
22629;DHT22;11481;53.694;9.910;2023-04-24T09:07:55;13.10;99.90
22629;DHT22;11481;53.694;9.910;2023-04-24T09:10:26;13.50;99.90
22629;DHT22;11481;53.694;9.910;2023-04-24T09:13:02;13.00;99.90
22629;DHT22;11481;53.694;9.910;2023-04-24T09:15:42;13.00;99.90
22629;DHT22;11481;53.694;9.910;2023-04-24T09:18:11;13.10;99.90
22629;DHT22;11481;53.694;9.910;2023-04-24T09:20:56;13.20;99.90
22629;DHT22;11481;53.694;9.910;2023-04-24T09:23:26;13.20;99.90
22629;DHT22;11481;53.694;9.910;2023-04-24T09:25:57;13.30;99.90
22629;DHT22;11481;53.694;9.910;2023-04-24T09:28:32;13.40;99.90
22629;DHT22;11481;53.694;9.910;2023-04-24T09:31:13;13.50;99.90
22629;DHT22;11481;53.694;9.910;2023-04-24T09:36:35;13.60;99.90
22629;DHT22;11481;53.694;9.910;2023-04-24T09:39:06;13.60;99.90
22629;DHT22;11481;53.694;9.910;2023-04-24T09:41:53;13.70;99.90
22629;DHT22;11481;53.694;9.910;2023-04-24T09:44:23;13.60;99.90
22629;DHT22;11481;53.694;9.910;2023-04-24T09:46:54;13.60;99.90
22629;DHT22;11481;53.694;9.910;2023-04-24T09:49:31;13.60;99.90
22629;DHT22;11481;53.694;9.910;2023-04-24T09:52:07;13.80;99.90
22629;DHT22;11481;53.694;9.910;2023-04-24T09:54:34;13.90;99.90
22629;DHT22;11481;53.694;9.910;2023-04-24T09:57:03;13.80;99.90
22629;DHT22;11481;53.694;9.910;2023-04-24T09:59:31;13.80;99.90
22629;DHT22;11481;53.694;9.910;2023-04-24T10:01:59;13.80;99.90
22629;DHT22;11481;53.694;9.910;2023-04-24T10:04:27;13.70;99.90
22629;DHT22;11481;53.694;9.910;2023-04-24T10:06:56;13.50;99.90
22629;DHT22;11481;53.694;9.910;2023-04-24T10:09:26;13.50;99.90
22629;DHT22;11481;53.694;9.910;2023-04-24T10:11:54;13.50;99.90
22629;DHT22;11481;53.694;9.910;2023-04-24T10:14:23;13.60;99.90
22629;DHT22;11481;53.694;9.910;2023-04-24T10:16:55;13.90;99.90
22629;DHT22;11481;53.694;9.910;2023-04-24T10:19:25;13.50;99.90
22629;DHT22;11481;53.694;9.910;2023-04-24T10:21:52;13.60;99.90
22629;DHT22;11481;53.694;9.910;2023-04-24T10:24:22;13.60;99.90
22629;DHT22;11481;53.694;9.910;2023-04-24T10:26:49;13.50;99.90
22629;DHT22;11481;53.694;9.910;2023-04-24T10:29:19;13.80;99.90
22629;DHT22;11481;53.694;9.910;2023-04-24T10:31:46;13.70;99.90
22629;DHT22;11481;53.694;9.910;2023-04-24T10:34:16;13.90;99.90
22629;DHT22;11481;53.694;9.910;2023-04-24T10:36:51;13.90;99.90
22629;DHT22;11481;53.694;9.910;2023-04-24T10:39:23;13.80;99.90
22629;DHT22;11481;53.694;9.910;2023-04-24T10:41:54;13.70;99.90
22629;DHT22;11481;53.694;9.910;2023-04-24T10:44:23;13.80;99.90
22629;DHT22;11481;53.694;9.910;2023-04-24T10:46:53;14.00;99.90
22629;DHT22;11481;53.694;9.910;2023-04-24T10:49:30;14.10;99.90
22629;DHT22;11481;53.694;9.910;2023-04-24T10:52:03;14.20;99.90
22629;DHT22;11481;53.694;9.910;2023-04-24T10:54:42;14.20;99.90
22629;DHT22;11481;53.694;9.910;2023-04-24T11:00:14;14.40;99.90
22629;DHT22;11481;53.694;9.910;2023-04-24T11:02:41;14.50;99.90
22629;DHT22;11481;53.694;9.910;2023-04-24T11:05:16;14.60;99.90
22629;DHT22;11481;53.694;9.910;2023-04-24T11:10:45;14.40;99.90
22629;DHT22;11481;53.694;9.910;2023-04-24T11:13:15;14.30;99.90
22629;DHT22;11481;53.694;9.910;2023-04-24T11:15:42;14.30;99.90
22629;DHT22;11481;53.694;9.910;2023-04-24T11:18:14;14.10;99.90
22629;DHT22;11481;53.694;9.910;2023-04-24T11:20:44;14.00;99.90
22629;DHT22;11481;53.694;9.910;2023-04-24T11:23:12;13.90;99.90
22629;DHT22;11481;53.694;9.910;2023-04-24T11:25:41;13.90;99.90
22629;DHT22;11481;53.694;9.910;2023-04-24T11:28:14;13.80;99.90
22629;DHT22;11481;53.694;9.910;2023-04-24T11:30:42;13.80;99.90
22629;DHT22;11481;53.694;9.910;2023-04-24T11:33:09;13.90;99.90
22629;DHT22;11481;53.694;9.910;2023-04-24T11:35:39;13.70;99.90
22629;DHT22;11481;53.694;9.910;2023-04-24T11:38:06;13.70;99.90
22629;DHT22;11481;53.694;9.910;2023-04-24T11:40:49;13.50;99.90
22629;DHT22;11481;53.694;9.910;2023-04-24T11:43:16;13.70;99.90
22629;DHT22;11481;53.694;9.910;2023-04-24T11:45:48;13.70;99.90
22629;DHT22;11481;53.694;9.910;2023-04-24T11:48:19;13.90;99.90
22629;DHT22;11481;53.694;9.910;2023-04-24T11:50:48;14.10;99.90
22629;DHT22;11481;53.694;9.910;2023-04-24T11:53:15;14.10;99.90
22629;DHT22;11481;53.694;9.910;2023-04-24T11:55:42;14.10;99.90
22629;DHT22;11481;53.694;9.910;2023-04-24T11:58:08;14.20;99.90
22629;DHT22;11481;53.694;9.910;2023-04-24T12:00:36;14.10;99.90
22629;DHT22;11481;53.694;9.910;2023-04-24T12:03:10;14.20;99.90
22629;DHT22;11481;53.694;9.910;2023-04-24T12:05:38;14.10;99.90
22629;DHT22;11481;53.694;9.910;2023-04-24T12:08:06;14.00;99.90
22629;DHT22;11481;53.694;9.910;2023-04-24T12:10:34;14.00;99.90
22629;DHT22;11481;53.694;9.910;2023-04-24T12:13:01;14.00;99.90
22629;DHT22;11481;53.694;9.910;2023-04-24T12:15:28;14.10;99.90
22629;DHT22;11481;53.694;9.910;2023-04-24T12:17:56;14.00;99.90
22629;DHT22;11481;53.694;9.910;2023-04-24T12:20:32;13.90;99.90
22629;DHT22;11481;53.694;9.910;2023-04-24T12:23:01;13.80;99.90
22629;DHT22;11481;53.694;9.910;2023-04-24T12:25:32;13.80;99.90
22629;DHT22;11481;53.694;9.910;2023-04-24T12:30:33;14.00;99.90
22629;DHT22;11481;53.694;9.910;2023-04-24T12:33:00;14.20;99.90
22629;DHT22;11481;53.694;9.910;2023-04-24T12:35:29;14.20;99.90
22629;DHT22;11481;53.694;9.910;2023-04-24T12:38:11;14.20;99.90
22629;DHT22;11481;53.694;9.910;2023-04-24T12:40:43;14.40;99.90
22629;DHT22;11481;53.694;9.910;2023-04-24T12:43:18;14.20;99.90
22629;DHT22;11481;53.694;9.910;2023-04-24T12:45:47;14.00;99.90
22629;DHT22;11481;53.694;9.910;2023-04-24T12:48:14;14.10;99.90
22629;DHT22;11481;53.694;9.910;2023-04-24T12:50:41;14.30;99.90
22629;DHT22;11481;53.694;9.910;2023-04-24T12:53:11;14.20;99.90
22629;DHT22;11481;53.694;9.910;2023-04-24T12:55:38;13.90;99.90
22629;DHT22;11481;53.694;9.910;2023-04-24T12:58:08;13.70;99.90
22629;DHT22;11481;53.694;9.910;2023-04-24T13:00:34;13.80;99.90
22629;DHT22;11481;53.694;9.910;2023-04-24T13:03:03;13.60;99.90
22629;DHT22;11481;53.694;9.910;2023-04-24T13:05:32;13.50;99.90
22629;DHT22;11481;53.694;9.910;2023-04-24T13:07:59;13.50;99.90
22629;DHT22;11481;53.694;9.910;2023-04-24T13:10:26;13.70;99.90
22629;DHT22;11481;53.694;9.910;2023-04-24T13:12:52;13.50;99.90
22629;DHT22;11481;53.694;9.910;2023-04-24T13:15:19;13.30;99.90
22629;DHT22;11481;53.694;9.910;2023-04-24T13:17:46;13.00;99.90
22629;DHT22;11481;53.694;9.910;2023-04-24T13:20:14;12.70;99.90
22629;DHT22;11481;53.694;9.910;2023-04-24T13:22:41;12.40;99.90
22629;DHT22;11481;53.694;9.910;2023-04-24T13:25:08;12.40;99.90
22629;DHT22;11481;53.694;9.910;2023-04-24T13:27:35;12.40;99.90
22629;DHT22;11481;53.694;9.910;2023-04-24T13:30:02;12.40;99.90
22629;DHT22;11481;53.694;9.910;2023-04-24T13:32:30;12.30;99.90
22629;DHT22;11481;53.694;9.910;2023-04-24T13:34:58;12.10;99.90
22629;DHT22;11481;53.694;9.910;2023-04-24T13:37:25;12.20;99.90
22629;DHT22;11481;53.694;9.910;2023-04-24T13:39:54;12.20;99.90
22629;DHT22;11481;53.694;9.910;2023-04-24T13:42:22;12.20;99.90
22629;DHT22;11481;53.694;9.910;2023-04-24T13:44:49;12.30;99.90
22629;DHT22;11481;53.694;9.910;2023-04-24T13:47:17;12.20;99.90
22629;DHT22;11481;53.694;9.910;2023-04-24T13:49:45;12.30;99.90
22629;DHT22;11481;53.694;9.910;2023-04-24T13:52:12;12.30;99.90
22629;DHT22;11481;53.694;9.910;2023-04-24T13:54:39;12.50;99.90
22629;DHT22;11481;53.694;9.910;2023-04-24T13:57:05;12.40;99.90
22629;DHT22;11481;53.694;9.910;2023-04-24T13:59:32;12.40;99.90
22629;DHT22;11481;53.694;9.910;2023-04-24T14:01:59;12.50;99.90
22629;DHT22;11481;53.694;9.910;2023-04-24T14:04:25;12.60;99.90
22629;DHT22;11481;53.694;9.910;2023-04-24T14:06:54;12.70;99.90
22629;DHT22;11481;53.694;9.910;2023-04-24T14:09:22;12.70;99.90
22629;DHT22;11481;53.694;9.910;2023-04-24T14:11:49;12.60;99.90
22629;DHT22;11481;53.694;9.910;2023-04-24T14:14:17;12.60;99.90
22629;DHT22;11481;53.694;9.910;2023-04-24T14:16:44;12.60;99.90
22629;DHT22;11481;53.694;9.910;2023-04-24T14:19:10;12.60;99.90
22629;DHT22;11481;53.694;9.910;2023-04-24T14:21:38;12.70;99.90
22629;DHT22;11481;53.694;9.910;2023-04-24T14:24:05;12.60;99.90
22629;DHT22;11481;53.694;9.910;2023-04-24T14:26:34;12.50;99.90
22629;DHT22;11481;53.694;9.910;2023-04-24T14:29:01;12.60;99.90
22629;DHT22;11481;53.694;9.910;2023-04-24T14:31:30;12.60;99.90
22629;DHT22;11481;53.694;9.910;2023-04-24T14:33:57;12.60;99.90
22629;DHT22;11481;53.694;9.910;2023-04-24T14:36:24;12.50;99.90
22629;DHT22;11481;53.694;9.910;2023-04-24T14:38:50;12.10;99.90
22629;DHT22;11481;53.694;9.910;2023-04-24T14:41:17;12.00;99.90
22629;DHT22;11481;53.694;9.910;2023-04-24T14:43:45;11.90;99.90
22629;DHT22;11481;53.694;9.910;2023-04-24T14:46:12;11.70;99.90
22629;DHT22;11481;53.694;9.910;2023-04-24T14:48:39;11.50;99.90
22629;DHT22;11481;53.694;9.910;2023-04-24T14:51:05;11.60;99.90
22629;DHT22;11481;53.694;9.910;2023-04-24T14:53:33;11.50;99.90
22629;DHT22;11481;53.694;9.910;2023-04-24T14:56:00;11.50;99.90
22629;DHT22;11481;53.694;9.910;2023-04-24T14:58:26;11.50;99.90
22629;DHT22;11481;53.694;9.910;2023-04-24T15:00:53;11.40;99.90
22629;DHT22;11481;53.694;9.910;2023-04-24T15:03:22;11.40;99.90
22629;DHT22;11481;53.694;9.910;2023-04-24T15:05:52;11.40;99.90
22629;DHT22;11481;53.694;9.910;2023-04-24T15:08:19;11.30;99.90
22629;DHT22;11481;53.694;9.910;2023-04-24T15:10:46;11.30;99.90
22629;DHT22;11481;53.694;9.910;2023-04-24T15:13:13;11.30;99.90
22629;DHT22;11481;53.694;9.910;2023-04-24T15:15:40;11.20;99.90
22629;DHT22;11481;53.694;9.910;2023-04-24T15:18:09;11.20;99.90
22629;DHT22;11481;53.694;9.910;2023-04-24T15:20:38;11.10;99.90
22629;DHT22;11481;53.694;9.910;2023-04-24T15:23:10;10.90;99.90
22629;DHT22;11481;53.694;9.910;2023-04-24T15:25:37;10.80;99.90
22629;DHT22;11481;53.694;9.910;2023-04-24T15:28:05;10.70;99.90
22629;DHT22;11481;53.694;9.910;2023-04-24T15:30:32;10.40;99.90
22629;DHT22;11481;53.694;9.910;2023-04-24T15:33:03;10.20;99.90
22629;DHT22;11481;53.694;9.910;2023-04-24T15:35:30;10.10;99.90
22629;DHT22;11481;53.694;9.910;2023-04-24T15:37:56;9.90;99.90
22629;DHT22;11481;53.694;9.910;2023-04-24T15:40:23;10.10;99.90
22629;DHT22;11481;53.694;9.910;2023-04-24T15:42:52;9.80;99.90
22629;DHT22;11481;53.694;9.910;2023-04-24T15:45:19;9.70;99.90
22629;DHT22;11481;53.694;9.910;2023-04-24T15:47:46;9.50;99.90